sensor_id;sensor_type;location;lat;lon;timestamp;pressure;altitude;pressure_sealevel;temperature;humidity
70521;BME280;58442;52.716;23.560;2023-04-08T00:00:39;102104.14;;;2.44;72.04
70521;BME280;58442;52.716;23.560;2023-04-08T00:02:45;102108.44;;;2.45;72.00
70521;BME280;58442;52.716;23.560;2023-04-08T00:04:51;102111.13;;;2.45;71.95
70521;BME280;58442;52.716;23.560;2023-04-08T00:06:53;102111.93;;;2.45;71.83
70521;BME280;58442;52.716;23.560;2023-04-08T00:08:54;102117.02;;;2.42;71.73
70521;BME280;58442;52.716;23.560;2023-04-08T00:10:56;102115.10;;;2.37;71.77
70521;BME280;58442;52.716;23.560;2023-04-08T00:13:06;102120.19;;;2.34;71.90
70521;BME280;58442;52.716;23.560;2023-04-08T00:15:08;102120.42;;;2.32;72.04
70521;BME280;58442;52.716;23.560;2023-04-08T00:17:10;102109.95;;;2.31;71.98
70521;BME280;58442;52.716;23.560;2023-04-08T00:19:12;102120.14;;;2.29;71.99
70521;BME280;58442;52.716;23.560;2023-04-08T00:21:22;102117.95;;;2.26;72.18
70521;BME280;58442;52.716;23.560;2023-04-08T00:23:23;102116.87;;;2.22;72.15
70521;BME280;58442;52.716;23.560;2023-04-08T00:25:24;102113.88;;;2.18;72.21
70521;BME280;58442;52.716;23.560;2023-04-08T00:27:26;102122.45;;;2.15;72.28
70521;BME280;58442;52.716;23.560;2023-04-08T00:29:37;102116.78;;;2.11;72.35
70521;BME280;58442;52.716;23.560;2023-04-08T00:31:38;102121.59;;;2.09;72.40
70521;BME280;58442;52.716;23.560;2023-04-08T00:33:40;102124.80;;;2.06;72.47
70521;BME280;58442;52.716;23.560;2023-04-08T00:35:41;102120.74;;;2.04;72.51
70521;BME280;58442;52.716;23.560;2023-04-08T00:37:52;102116.71;;;2.01;72.58
70521;BME280;58442;52.716;23.560;2023-04-08T00:39:53;102124.21;;;1.99;72.65
70521;BME280;58442;52.716;23.560;2023-04-08T00:41:55;102115.84;;;1.96;72.69
70521;BME280;58442;52.716;23.560;2023-04-08T00:43:57;102116.66;;;1.96;72.69
70521;BME280;58442;52.716;23.560;2023-04-08T00:46:08;102117.73;;;1.95;72.66
70521;BME280;58442;52.716;23.560;2023-04-08T00:48:10;102125.77;;;1.95;72.69
70521;BME280;58442;52.716;23.560;2023-04-08T00:50:12;102120.67;;;1.94;72.64
70521;BME280;58442;52.716;23.560;2023-04-08T00:52:14;102127.91;;;1.93;72.60
70521;BME280;58442;52.716;23.560;2023-04-08T00:54:22;102137.25;;;1.90;72.62
70521;BME280;58442;52.716;23.560;2023-04-08T00:56:23;102133.22;;;1.88;72.71
70521;BME280;58442;52.716;23.560;2023-04-08T00:58:26;102127.53;;;1.84;72.77
70521;BME280;58442;52.716;23.560;2023-04-08T01:00:30;102127.80;;;1.83;72.80
70521;BME280;58442;52.716;23.560;2023-04-08T01:05:05;102135.84;;;1.83;72.74
70521;BME280;58442;52.716;23.560;2023-04-08T01:07:14;102137.17;;;1.80;72.77
70521;BME280;58442;52.716;23.560;2023-04-08T01:09:18;102143.02;;;1.77;72.81
70521;BME280;58442;52.716;23.560;2023-04-08T01:11:21;102138.44;;;1.73;72.86
70521;BME280;58442;52.716;23.560;2023-04-08T01:13:25;102134.38;;;1.70;72.96
70521;BME280;58442;52.716;23.560;2023-04-08T01:15:29;102136.51;;;1.68;72.98
70521;BME280;58442;52.716;23.560;2023-04-08T01:17:32;102139.99;;;1.69;72.94
70521;BME280;58442;52.716;23.560;2023-04-08T01:19:37;102147.48;;;1.67;72.93
70521;BME280;58442;52.716;23.560;2023-04-08T01:21:40;102142.13;;;1.67;72.91
70521;BME280;58442;52.716;23.560;2023-04-08T01:25:56;102145.30;;;1.63;72.89
70521;BME280;58442;52.716;23.560;2023-04-08T01:28:00;102143.94;;;1.61;72.90
70521;BME280;58442;52.716;23.560;2023-04-08T01:30:07;102145.81;;;1.60;72.92
70521;BME280;58442;52.716;23.560;2023-04-08T01:32:10;102147.69;;;1.60;72.94
70521;BME280;58442;52.716;23.560;2023-04-08T01:34:13;102150.10;;;1.61;72.86
70521;BME280;58442;52.716;23.560;2023-04-08T01:36:16;102146.36;;;1.62;72.74
70521;BME280;58442;52.716;23.560;2023-04-08T01:38:22;102151.97;;;1.61;72.75
70521;BME280;58442;52.716;23.560;2023-04-08T01:40:26;102143.63;;;1.57;72.79
70521;BME280;58442;52.716;23.560;2023-04-08T01:42:28;102144.45;;;1.58;72.83
70521;BME280;58442;52.716;23.560;2023-04-08T01:44:30;102145.00;;;1.60;72.77
70521;BME280;58442;52.716;23.560;2023-04-08T01:46:33;102143.13;;;1.60;72.68
70521;BME280;58442;52.716;23.560;2023-04-08T01:48:37;102141.52;;;1.59;72.59
70521;BME280;58442;52.716;23.560;2023-04-08T01:50:40;102144.69;;;1.56;72.57
70521;BME280;58442;52.716;23.560;2023-04-08T01:52:44;102147.88;;;1.53;72.64
70521;BME280;58442;52.716;23.560;2023-04-08T01:54:47;102148.14;;;1.52;72.66
70521;BME280;58442;52.716;23.560;2023-04-08T01:56:50;102150.81;;;1.52;72.74
70521;BME280;58442;52.716;23.560;2023-04-08T01:58:55;102153.72;;;1.50;72.75
70521;BME280;58442;52.716;23.560;2023-04-08T02:00:59;102149.43;;;1.49;72.76
70521;BME280;58442;52.716;23.560;2023-04-08T02:03:04;102155.85;;;1.48;72.81
70521;BME280;58442;52.716;23.560;2023-04-08T02:05:07;102153.43;;;1.47;72.83
70521;BME280;58442;52.716;23.560;2023-04-08T02:07:10;102157.98;;;1.46;72.88
70521;BME280;58442;52.716;23.560;2023-04-08T02:09:12;102164.15;;;1.47;72.82
70521;BME280;58442;52.716;23.560;2023-04-08T02:11:17;102164.96;;;1.47;72.77
70521;BME280;58442;52.716;23.560;2023-04-08T02:13:18;102167.89;;;1.46;72.76
70521;BME280;58442;52.716;23.560;2023-04-08T02:15:20;102165.47;;;1.44;72.73
70521;BME280;58442;52.716;23.560;2023-04-08T02:17:35;102162.79;;;1.44;72.70
70521;BME280;58442;52.716;23.560;2023-04-08T02:19:50;102162.21;;;1.42;72.70
70521;BME280;58442;52.716;23.560;2023-04-08T02:22:04;102169.69;;;1.40;72.75
70521;BME280;58442;52.716;23.560;2023-04-08T02:24:04;102163.53;;;1.40;72.84
70521;BME280;58442;52.716;23.560;2023-04-08T02:26:12;102165.41;;;1.39;72.78
70521;BME280;58442;52.716;23.560;2023-04-08T02:28:17;102163.21;;;1.36;72.78
70521;BME280;58442;52.716;23.560;2023-04-08T02:30:19;102169.07;;;1.33;72.89
70521;BME280;58442;52.716;23.560;2023-04-08T02:32:22;102169.32;;;1.31;72.91
70521;BME280;58442;52.716;23.560;2023-04-08T02:34:26;102171.42;;;1.29;72.91
70521;BME280;58442;52.716;23.560;2023-04-08T02:36:27;102171.69;;;1.28;72.93
70521;BME280;58442;52.716;23.560;2023-04-08T02:38:31;102175.42;;;1.27;72.95
70521;BME280;58442;52.716;23.560;2023-04-08T02:40:32;102179.98;;;1.26;72.91
70521;BME280;58442;52.716;23.560;2023-04-08T02:42:35;102179.65;;;1.23;72.95
70521;BME280;58442;52.716;23.560;2023-04-08T02:44:36;102187.13;;;1.21;73.01
70521;BME280;58442;52.716;23.560;2023-04-08T02:46:45;102185.52;;;1.20;73.08
70521;BME280;58442;52.716;23.560;2023-04-08T02:48:46;102186.57;;;1.19;73.09
70521;BME280;58442;52.716;23.560;2023-04-08T02:50:48;102193.80;;;1.18;73.08
70521;BME280;58442;52.716;23.560;2023-04-08T02:52:49;102177.16;;;1.16;73.04
70521;BME280;58442;52.716;23.560;2023-04-08T02:55:00;102183.83;;;1.14;73.13
70521;BME280;58442;52.716;23.560;2023-04-08T02:57:01;102181.66;;;1.11;73.24
70521;BME280;58442;52.716;23.560;2023-04-08T02:59:03;102186.20;;;1.10;73.27
70521;BME280;58442;52.716;23.560;2023-04-08T03:01:04;102187.49;;;1.07;73.28
70521;BME280;58442;52.716;23.560;2023-04-08T03:03:15;102190.98;;;1.08;73.30
70521;BME280;58442;52.716;23.560;2023-04-08T03:05:16;102184.01;;;1.07;73.30
70521;BME280;58442;52.716;23.560;2023-04-08T03:07:18;102185.06;;;1.06;73.33
70521;BME280;58442;52.716;23.560;2023-04-08T03:09:19;102186.94;;;1.05;73.35
70521;BME280;58442;52.716;23.560;2023-04-08T03:11:30;102188.81;;;1.05;73.35
70521;BME280;58442;52.716;23.560;2023-04-08T03:13:32;102187.74;;;1.06;73.34
70521;BME280;58442;52.716;23.560;2023-04-08T03:15:35;102184.26;;;1.05;73.33
70521;BME280;58442;52.716;23.560;2023-04-08T03:17:36;102188.55;;;1.06;73.31
70521;BME280;58442;52.716;23.560;2023-04-08T03:19:45;102198.70;;;1.04;73.33
70521;BME280;58442;52.716;23.560;2023-04-08T03:21:47;102189.88;;;1.04;73.37
70521;BME280;58442;52.716;23.560;2023-04-08T03:23:48;102185.54;;;1.03;73.43
70521;BME280;58442;52.716;23.560;2023-04-08T03:25:50;102190.90;;;1.03;73.41
70521;BME280;58442;52.716;23.560;2023-04-08T03:28:00;102185.54;;;1.03;73.39
70521;BME280;58442;52.716;23.560;2023-04-08T03:30:02;102195.45;;;1.02;73.42
70521;BME280;58442;52.716;23.560;2023-04-08T03:32:03;102199.98;;;1.02;73.43
70521;BME280;58442;52.716;23.560;2023-04-08T03:34:05;102193.83;;;1.01;73.40
70521;BME280;58442;52.716;23.560;2023-04-08T03:36:15;102196.51;;;1.01;73.40
70521;BME280;58442;52.716;23.560;2023-04-08T03:38:17;102201.86;;;1.01;73.32
70521;BME280;58442;52.716;23.560;2023-04-08T03:40:18;102200.80;;;1.02;73.23
70521;BME280;58442;52.716;23.560;2023-04-08T03:42:19;102196.51;;;1.01;73.19
70521;BME280;58442;52.716;23.560;2023-04-08T03:44:30;102201.05;;;1.01;73.20
70521;BME280;58442;52.716;23.560;2023-04-08T03:46:32;102195.70;;;1.01;73.17
70521;BME280;58442;52.716;23.560;2023-04-08T03:48:33;102201.86;;;1.01;73.11
70521;BME280;58442;52.716;23.560;2023-04-08T03:50:34;102202.67;;;1.02;73.04
70521;BME280;58442;52.716;23.560;2023-04-08T03:52:45;102195.95;;;0.99;73.03
70521;BME280;58442;52.716;23.560;2023-04-08T03:54:47;102196.46;;;0.96;73.15
70521;BME280;58442;52.716;23.560;2023-04-08T03:56:49;102200.16;;;0.95;73.21
70521;BME280;58442;52.716;23.560;2023-04-08T03:58:50;102201.81;;;0.96;73.21
70521;BME280;58442;52.716;23.560;2023-04-08T04:01:01;102200.16;;;0.95;73.22
70521;BME280;58442;52.716;23.560;2023-04-08T04:03:03;102199.13;;;0.96;73.19
70521;BME280;58442;52.716;23.560;2023-04-08T04:05:04;102189.46;;;0.95;73.17
70521;BME280;58442;52.716;23.560;2023-04-08T04:07:06;102200.16;;;0.95;73.21
70521;BME280;58442;52.716;23.560;2023-04-08T04:09:17;102198.08;;;0.97;73.20
70521;BME280;58442;52.716;23.560;2023-04-08T04:11:19;102201.30;;;0.99;73.11
70521;BME280;58442;52.716;23.560;2023-04-08T04:13:22;102198.62;;;0.99;73.01
70521;BME280;58442;52.716;23.560;2023-04-08T04:15:23;102202.63;;;0.97;73.00
70521;BME280;58442;52.716;23.560;2023-04-08T04:17:33;102198.30;;;0.96;73.12
70521;BME280;58442;52.716;23.560;2023-04-08T04:19:34;102197.50;;;0.95;73.24
70521;BME280;58442;52.716;23.560;2023-04-08T04:21:36;102213.55;;;0.95;73.33
70521;BME280;58442;52.716;23.560;2023-04-08T04:23:37;102200.75;;;0.97;73.39
70521;BME280;58442;52.716;23.560;2023-04-08T04:25:47;102201.60;;;1.03;73.39
70521;BME280;58442;52.716;23.560;2023-04-08T04:27:49;102209.71;;;1.08;73.35
70521;BME280;58442;52.716;23.560;2023-04-08T04:29:50;102210.84;;;1.12;73.29
70521;BME280;58442;52.716;23.560;2023-04-08T04:31:52;102211.15;;;1.16;73.30
70521;BME280;58442;52.716;23.560;2023-04-08T04:34:03;102214.96;;;1.20;73.25
70521;BME280;58442;52.716;23.560;2023-04-08T04:36:04;102222.27;;;1.24;73.26
70521;BME280;58442;52.716;23.560;2023-04-08T04:38:06;102216.15;;;1.29;73.25
70521;BME280;58442;52.716;23.560;2023-04-08T04:40:13;102211.93;;;1.33;73.20
70521;BME280;58442;52.716;23.560;2023-04-08T04:42:18;102225.95;;;1.40;73.14
70521;BME280;58442;52.716;23.560;2023-04-08T04:44:19;102223.56;;;1.44;73.11
70521;BME280;58442;52.716;23.560;2023-04-08T04:46:20;102230.87;;;1.48;73.09
70521;BME280;58442;52.716;23.560;2023-04-08T04:48:22;102228.25;;;1.53;73.09
70521;BME280;58442;52.716;23.560;2023-04-08T04:50:33;102231.00;;;1.58;73.04
70521;BME280;58442;52.716;23.560;2023-04-08T04:52:35;102238.85;;;1.65;73.01
70521;BME280;58442;52.716;23.560;2023-04-08T04:54:37;102236.20;;;1.70;72.95
70521;BME280;58442;52.716;23.560;2023-04-08T04:56:38;102235.47;;;1.75;72.91
70521;BME280;58442;52.716;23.560;2023-04-08T04:58:48;102244.38;;;1.80;72.91
70521;BME280;58442;52.716;23.560;2023-04-08T05:00:49;102240.11;;;1.84;72.97
70521;BME280;58442;52.716;23.560;2023-04-08T05:02:51;102248.23;;;1.89;73.00
70521;BME280;58442;52.716;23.560;2023-04-08T05:04:52;102248.55;;;1.93;73.02
70521;BME280;58442;52.716;23.560;2023-04-08T05:07:03;102259.07;;;2.00;73.04
70521;BME280;58442;52.716;23.560;2023-04-08T05:09:05;102254.55;;;2.05;73.05
70521;BME280;58442;52.716;23.560;2023-04-08T05:11:09;102261.04;;;2.09;73.07
70521;BME280;58442;52.716;23.560;2023-04-08T05:13:11;102258.42;;;2.14;73.04
70521;BME280;58442;52.716;23.560;2023-04-08T05:15:18;102256.60;;;2.20;72.99
70521;BME280;58442;52.716;23.560;2023-04-08T05:17:21;102256.41;;;2.27;73.00
70521;BME280;58442;52.716;23.560;2023-04-08T05:19:22;102251.33;;;2.30;73.00
70521;BME280;58442;52.716;23.560;2023-04-08T05:21:23;102252.18;;;2.36;72.94
70521;BME280;58442;52.716;23.560;2023-04-08T05:23:34;102258.64;;;2.40;72.91
70521;BME280;58442;52.716;23.560;2023-04-08T05:25:35;102256.01;;;2.45;72.92
70521;BME280;58442;52.716;23.560;2023-04-08T05:27:37;102251.49;;;2.51;72.85
70521;BME280;58442;52.716;23.560;2023-04-08T05:29:40;102255.05;;;2.56;72.80
70521;BME280;58442;52.716;23.560;2023-04-08T05:31:48;102247.05;;;2.61;72.75
70521;BME280;58442;52.716;23.560;2023-04-08T05:33:50;102255.12;;;2.66;72.74
70521;BME280;58442;52.716;23.560;2023-04-08T05:35:52;102256.23;;;2.70;72.70
70521;BME280;58442;52.716;23.560;2023-04-08T05:37:53;102249.29;;;2.74;72.66
70521;BME280;58442;52.716;23.560;2023-04-08T05:40:05;102247.70;;;2.79;72.64
70521;BME280;58442;52.716;23.560;2023-04-08T05:42:06;102254.18;;;2.83;72.64
70521;BME280;58442;52.716;23.560;2023-04-08T05:44:08;102240.22;;;2.86;72.59
70521;BME280;58442;52.716;23.560;2023-04-08T05:46:09;102245.91;;;2.89;72.55
70521;BME280;58442;52.716;23.560;2023-04-08T05:48:19;102249.41;;;2.95;72.54
70521;BME280;58442;52.716;23.560;2023-04-08T05:50:20;102254.28;;;2.98;72.51
70521;BME280;58442;52.716;23.560;2023-04-08T05:52:22;102250.02;;;3.02;72.48
70521;BME280;58442;52.716;23.560;2023-04-08T05:54:24;102258.36;;;3.06;72.50
70521;BME280;58442;52.716;23.560;2023-04-08T05:56:34;102257.59;;;3.10;72.55
70521;BME280;58442;52.716;23.560;2023-04-08T05:58:36;102259.74;;;3.13;72.65
70521;BME280;58442;52.716;23.560;2023-04-08T06:00:37;102256.55;;;3.16;72.67
70521;BME280;58442;52.716;23.560;2023-04-08T06:02:39;102260.06;;;3.22;72.63
70521;BME280;58442;52.716;23.560;2023-04-08T06:04:49;102261.98;;;3.26;72.63
70521;BME280;58442;52.716;23.560;2023-04-08T06:06:51;102255.02;;;3.31;72.64
70521;BME280;58442;52.716;23.560;2023-04-08T06:08:52;102260.41;;;3.36;72.66
70521;BME280;58442;52.716;23.560;2023-04-08T06:10:54;102262.31;;;3.40;72.66
70521;BME280;58442;52.716;23.560;2023-04-08T06:13:04;102259.66;;;3.45;72.64
70521;BME280;58442;52.716;23.560;2023-04-08T06:15:06;102257.81;;;3.51;72.65
70521;BME280;58442;52.716;23.560;2023-04-08T06:17:08;102264.27;;;3.55;72.67
70521;BME280;58442;52.716;23.560;2023-04-08T06:19:09;102262.41;;;3.61;72.72
70521;BME280;58442;52.716;23.560;2023-04-08T06:21:20;102263.52;;;3.65;72.83
70521;BME280;58442;52.716;23.560;2023-04-08T06:23:21;102267.84;;;3.71;72.90
70521;BME280;58442;52.716;23.560;2023-04-08T06:25:23;102265.96;;;3.76;72.93
70521;BME280;58442;52.716;23.560;2023-04-08T06:27:24;102266.52;;;3.83;72.95
70521;BME280;58442;52.716;23.560;2023-04-08T06:29:35;102263.34;;;3.92;72.94
70521;BME280;58442;52.716;23.560;2023-04-08T06:31:36;102263.90;;;3.99;72.92
70521;BME280;58442;52.716;23.560;2023-04-08T06:33:37;102269.84;;;4.06;72.87
70521;BME280;58442;52.716;23.560;2023-04-08T06:35:39;102267.70;;;4.13;72.85
70521;BME280;58442;52.716;23.560;2023-04-08T06:37:50;102258.83;;;4.23;72.83
70521;BME280;58442;52.716;23.560;2023-04-08T06:39:51;102261.79;;;4.31;72.81
70521;BME280;58442;52.716;23.560;2023-04-08T06:41:53;102267.72;;;4.38;72.80
70521;BME280;58442;52.716;23.560;2023-04-08T06:43:54;102275.29;;;4.47;72.86
70521;BME280;58442;52.716;23.560;2023-04-08T06:46:05;102276.63;;;4.54;72.99
70521;BME280;58442;52.716;23.560;2023-04-08T06:48:07;102276.63;;;4.64;73.04
70521;BME280;58442;52.716;23.560;2023-04-08T06:50:09;102279.05;;;4.76;72.99
70521;BME280;58442;52.716;23.560;2023-04-08T06:52:11;102286.88;;;4.88;72.94
70521;BME280;58442;52.716;23.560;2023-04-08T06:54:20;102290.07;;;5.00;72.91
70521;BME280;58442;52.716;23.560;2023-04-08T06:56:22;102290.08;;;5.10;72.93
70521;BME280;58442;52.716;23.560;2023-04-08T06:58:26;102280.06;;;5.21;72.91
70521;BME280;58442;52.716;23.560;2023-04-08T07:00:27;102287.07;;;5.32;72.88
70521;BME280;58442;52.716;23.560;2023-04-08T07:02:36;102288.66;;;5.43;72.90
70521;BME280;58442;52.716;23.560;2023-04-08T07:04:37;102298.31;;;5.55;72.94
70521;BME280;58442;52.716;23.560;2023-04-08T07:06:38;102298.58;;;5.63;72.91
70521;BME280;58442;52.716;23.560;2023-04-08T07:08:40;102295.02;;;5.73;72.90
70521;BME280;58442;52.716;23.560;2023-04-08T07:10:51;102296.61;;;5.84;72.87
70521;BME280;58442;52.716;23.560;2023-04-08T07:12:53;102296.58;;;5.94;72.86
70521;BME280;58442;52.716;23.560;2023-04-08T07:14:55;102303.84;;;6.04;72.81
70521;BME280;58442;52.716;23.560;2023-04-08T07:16:56;102300.77;;;6.16;72.75
70521;BME280;58442;52.716;23.560;2023-04-08T07:19:06;102308.55;;;6.27;72.71
70521;BME280;58442;52.716;23.560;2023-04-08T07:21:08;102306.32;;;6.40;72.66
70521;BME280;58442;52.716;23.560;2023-04-08T07:23:10;102314.60;;;6.53;72.56
70521;BME280;58442;52.716;23.560;2023-04-08T07:25:11;102305.86;;;6.67;72.47
70521;BME280;58442;52.716;23.560;2023-04-08T07:27:22;102309.23;;;6.82;72.39
70521;BME280;58442;52.716;23.560;2023-04-08T07:29:23;102315.02;;;7.00;72.29
70521;BME280;58442;52.716;23.560;2023-04-08T07:31:24;102313.01;;;7.16;72.07
70521;BME280;58442;52.716;23.560;2023-04-08T07:33:26;102309.04;;;7.32;71.91
70521;BME280;58442;52.716;23.560;2023-04-08T07:35:37;102303.70;;;7.51;71.77
70521;BME280;58442;52.716;23.560;2023-04-08T07:37:38;102310.84;;;7.65;71.62
70521;BME280;58442;52.716;23.560;2023-04-08T07:39:40;102301.16;;;7.83;71.50
70521;BME280;58442;52.716;23.560;2023-04-08T07:41:42;102303.38;;;8.00;71.29
70521;BME280;58442;52.716;23.560;2023-04-08T07:43:52;102307.20;;;8.18;70.98
70521;BME280;58442;52.716;23.560;2023-04-08T07:46:02;102299.15;;;8.32;70.70
70521;BME280;58442;52.716;23.560;2023-04-08T07:48:05;102302.16;;;8.49;70.42
70521;BME280;58442;52.716;23.560;2023-04-08T07:50:07;102306.03;;;8.62;70.18
70521;BME280;58442;52.716;23.560;2023-04-08T07:52:09;102308.50;;;8.77;69.87
70521;BME280;58442;52.716;23.560;2023-04-08T07:54:10;102300.32;;;8.96;69.43
70521;BME280;58442;52.716;23.560;2023-04-08T07:56:16;102306.00;;;9.13;69.05
70521;BME280;58442;52.716;23.560;2023-04-08T07:58:18;102300.21;;;9.34;68.64
70521;BME280;58442;52.716;23.560;2023-04-08T08:00:24;102304.14;;;9.55;68.24
70521;BME280;58442;52.716;23.560;2023-04-08T08:02:25;102303.33;;;9.68;68.00
70521;BME280;58442;52.716;23.560;2023-04-08T08:04:27;102305.23;;;9.81;67.61
70521;BME280;58442;52.716;23.560;2023-04-08T08:06:28;102297.34;;;9.94;67.30
70521;BME280;58442;52.716;23.560;2023-04-08T08:08:38;102305.99;;;10.09;66.88
70521;BME280;58442;52.716;23.560;2023-04-08T08:10:40;102296.80;;;10.19;66.46
70521;BME280;58442;52.716;23.560;2023-04-08T08:12:42;102300.42;;;10.28;66.23
70521;BME280;58442;52.716;23.560;2023-04-08T08:14:43;102289.44;;;10.33;65.98
70521;BME280;58442;52.716;23.560;2023-04-08T08:16:53;102288.84;;;10.36;65.83
70521;BME280;58442;52.716;23.560;2023-04-08T08:18:55;102289.81;;;10.40;65.51
70521;BME280;58442;52.716;23.560;2023-04-08T08:20:56;102286.17;;;10.45;65.30
70521;BME280;58442;52.716;23.560;2023-04-08T08:22:58;102286.35;;;10.49;65.08
70521;BME280;58442;52.716;23.560;2023-04-08T08:25:08;102285.92;;;10.55;64.88
70521;BME280;58442;52.716;23.560;2023-04-08T08:27:10;102281.18;;;10.61;64.60
70521;BME280;58442;52.716;23.560;2023-04-08T08:29:11;102278.02;;;10.67;64.51
70521;BME280;58442;52.716;23.560;2023-04-08T08:31:13;102277.27;;;10.76;64.23
70521;BME280;58442;52.716;23.560;2023-04-08T08:33:26;102278.95;;;10.85;64.04
70521;BME280;58442;52.716;23.560;2023-04-08T08:35:28;102275.46;;;10.93;63.66
70521;BME280;58442;52.716;23.560;2023-04-08T08:37:29;102278.70;;;11.04;63.39
70521;BME280;58442;52.716;23.560;2023-04-08T08:39:30;102278.78;;;11.13;63.10
70521;BME280;58442;52.716;23.560;2023-04-08T08:41:38;102281.52;;;11.21;62.95
70521;BME280;58442;52.716;23.560;2023-04-08T08:43:42;102274.98;;;11.31;62.73
70521;BME280;58442;52.716;23.560;2023-04-08T08:45:45;102280.78;;;11.38;62.43
70521;BME280;58442;52.716;23.560;2023-04-08T08:47:46;102276.80;;;11.44;62.22
70521;BME280;58442;52.716;23.560;2023-04-08T08:49:53;102266.42;;;11.46;62.07
70521;BME280;58442;52.716;23.560;2023-04-08T08:51:54;102267.38;;;11.50;61.91
70521;BME280;58442;52.716;23.560;2023-04-08T08:53:56;102273.49;;;11.56;61.75
70521;BME280;58442;52.716;23.560;2023-04-08T08:56:02;102272.05;;;11.59;61.60
70521;BME280;58442;52.716;23.560;2023-04-08T08:58:08;102272.23;;;11.62;61.53
70521;BME280;58442;52.716;23.560;2023-04-08T09:00:10;102265.20;;;11.70;61.37
70521;BME280;58442;52.716;23.560;2023-04-08T09:02:25;102266.17;;;11.74;61.17
70521;BME280;58442;52.716;23.560;2023-04-08T09:04:27;102261.81;;;11.73;61.02
70521;BME280;58442;52.716;23.560;2023-04-08T09:06:29;102266.17;;;11.74;61.10
70521;BME280;58442;52.716;23.560;2023-04-08T09:08:35;102264.73;;;11.76;60.89
70521;BME280;58442;52.716;23.560;2023-04-08T09:10:37;102261.09;;;11.81;60.80
70521;BME280;58442;52.716;23.560;2023-04-08T09:17:04;102266.70;;;11.93;60.30
70521;BME280;58442;52.716;23.560;2023-04-08T09:19:10;102274.25;;;11.96;60.14
70521;BME280;58442;52.716;23.560;2023-04-08T09:21:13;102276.65;;;11.98;60.08
70521;BME280;58442;52.716;23.560;2023-04-08T09:23:15;102268.15;;;11.99;59.94
70521;BME280;58442;52.716;23.560;2023-04-08T09:25:24;102276.83;;;12.01;59.88
70521;BME280;58442;52.716;23.560;2023-04-08T09:27:33;102265.13;;;12.01;59.48
70521;BME280;58442;52.716;23.560;2023-04-08T09:29:36;102267.34;;;11.99;59.68
70521;BME280;58442;52.716;23.560;2023-04-08T09:31:38;102276.33;;;11.99;59.57
70521;BME280;58442;52.716;23.560;2023-04-08T09:33:43;102270.87;;;11.99;59.59
70521;BME280;58442;52.716;23.560;2023-04-08T09:35:44;102271.05;;;12.03;59.48
70521;BME280;58442;52.716;23.560;2023-04-08T09:37:48;102271.05;;;12.12;59.37
70521;BME280;58442;52.716;23.560;2023-04-08T09:39:50;102275.22;;;12.18;59.14
70521;BME280;58442;52.716;23.560;2023-04-08T09:41:57;102282.45;;;12.22;59.06
70521;BME280;58442;52.716;23.560;2023-04-08T09:44:06;102278.75;;;12.27;58.92
70521;BME280;58442;52.716;23.560;2023-04-08T09:46:10;102273.61;;;12.34;58.86
70521;BME280;58442;52.716;23.560;2023-04-08T09:48:16;102276.83;;;12.45;58.79
70521;BME280;58442;52.716;23.560;2023-04-08T09:50:26;102271.82;;;12.55;58.60
70521;BME280;58442;52.716;23.560;2023-04-08T09:55:01;102274.05;;;12.79;58.18
70521;BME280;58442;52.716;23.560;2023-04-08T09:57:09;102270.49;;;12.87;58.09
70521;BME280;58442;52.716;23.560;2023-04-08T09:59:16;102263.07;;;12.97;58.05
70521;BME280;58442;52.716;23.560;2023-04-08T10:01:35;102265.13;;;13.08;57.89
70521;BME280;58442;52.716;23.560;2023-04-08T10:03:47;102260.92;;;13.20;57.69
70521;BME280;58442;52.716;23.560;2023-04-08T10:05:52;102266.03;;;13.30;57.53
70521;BME280;58442;52.716;23.560;2023-04-08T10:07:59;102272.08;;;13.44;57.31
70521;BME280;58442;52.716;23.560;2023-04-08T10:10:01;102255.88;;;13.68;56.88
70521;BME280;58442;52.716;23.560;2023-04-08T10:12:04;102254.31;;;13.88;56.62
70521;BME280;58442;52.716;23.560;2023-04-08T10:14:08;102249.64;;;14.10;56.33
70521;BME280;58442;52.716;23.560;2023-04-08T10:18:35;102241.62;;;14.26;55.97
70521;BME280;58442;52.716;23.560;2023-04-08T10:20:41;102239.14;;;14.33;55.83
70521;BME280;58442;52.716;23.560;2023-04-08T10:22:48;102247.34;;;14.33;55.77
70521;BME280;58442;52.716;23.560;2023-04-08T10:27:03;102233.07;;;14.27;55.69
70521;BME280;58442;52.716;23.560;2023-04-08T10:31:39;102228.14;;;14.41;55.53
70521;BME280;58442;52.716;23.560;2023-04-08T10:33:40;102221.01;;;14.49;55.35
70521;BME280;58442;52.716;23.560;2023-04-08T10:35:45;102226.39;;;14.58;55.14
70521;BME280;58442;52.716;23.560;2023-04-08T10:37:48;102217.28;;;14.66;55.02
70521;BME280;58442;52.716;23.560;2023-04-08T10:39:49;102221.05;;;14.73;54.92
70521;BME280;58442;52.716;23.560;2023-04-08T10:41:54;102218.10;;;14.78;54.78
70521;BME280;58442;52.716;23.560;2023-04-08T10:43:56;102215.96;;;14.84;54.52
70521;BME280;58442;52.716;23.560;2023-04-08T10:45:57;102214.91;;;14.89;54.35
70521;BME280;58442;52.716;23.560;2023-04-08T10:50:23;102207.20;;;15.03;54.16
70521;BME280;58442;52.716;23.560;2023-04-08T10:52:25;102210.39;;;15.05;53.97
70521;BME280;58442;52.716;23.560;2023-04-08T10:54:28;102210.84;;;15.07;53.76
70521;BME280;58442;52.716;23.560;2023-04-08T10:56:29;102203.07;;;15.09;53.60
70521;BME280;58442;52.716;23.560;2023-04-08T10:58:51;102200.56;;;15.16;53.54
70521;BME280;58442;52.716;23.560;2023-04-08T11:01:04;102192.57;;;15.23;53.38
70521;BME280;58442;52.716;23.560;2023-04-08T11:03:08;102193.15;;;15.29;53.29
70521;BME280;58442;52.716;23.560;2023-04-08T11:05:11;102196.45;;;15.35;53.16
70521;BME280;58442;52.716;23.560;2023-04-08T11:07:12;102196.90;;;15.37;53.03